Time;durP1;ratioP1;P1;durP2;ratioP2;P2;SDS_P1;SDS_P2;PMS_P1;PMS_P2;Temp;Humidity;BMP_temperature;BMP_pressure;BME280_temperature;BME280_humidity;BME280_pressure;Samples;Min_cycle;Max_cycle;Signal;HPM_P1;HPM_P2
2023/06/18 00:01:02;;;;;;;14.75;10.93;;;20.40;96.60;;;;;;4979060;28;20050;-53
2023/06/18 00:03:28;;;;;;;15.85;11.73;;;20.40;96.70;;;;;;4976394;28;20548;-54
2023/06/18 00:05:54;;;;;;;16.67;12.15;;;20.30;96.90;;;;;;4980154;28;20038;-55
2023/06/18 00:08:21;;;;;;;14.77;11.27;;;20.30;97.10;;;;;;4977393;28;20050;-53
2023/06/18 00:10:47;;;;;;;14.77;11.90;;;20.30;97.20;;;;;;4978279;28;20038;-56
2023/06/18 00:13:13;;;;;;;14.75;11.65;;;20.20;97.40;;;;;;4976586;28;20034;-54
2023/06/18 00:15:39;;;;;;;16.17;12.52;;;20.20;97.50;;;;;;4980997;28;20033;-54
2023/06/18 00:18:05;;;;;;;14.68;11.63;;;20.10;97.70;;;;;;4978222;28;20129;-54
2023/06/18 00:20:32;;;;;;;16.05;11.80;;;20.00;97.80;;;;;;4980613;28;20046;-50
2023/06/18 00:22:59;;;;;;;15.52;12.02;;;20.00;98.00;;;;;;4979504;28;20034;-52
2023/06/18 00:25:26;;;;;;;14.40;12.45;;;20.00;98.20;;;;;;4981252;28;20489;-56
2023/06/18 00:27:52;;;;;;;16.30;12.30;;;19.90;98.40;;;;;;4977927;28;20124;-52
2023/06/18 00:30:17;;;;;;;17.92;12.27;;;19.80;98.40;;;;;;4978979;28;20046;-51
2023/06/18 00:32:46;;;;;;;15.13;12.05;;;19.80;98.60;;;;;;4978972;28;20053;-53
2023/06/18 00:35:12;;;;;;;15.98;12.65;;;19.70;98.80;;;;;;4978739;28;20089;-55
2023/06/18 00:37:39;;;;;;;18.55;13.63;;;19.70;98.90;;;;;;4979697;28;20038;-55
2023/06/18 00:40:08;;;;;;;18.48;13.00;;;19.60;99.10;;;;;;4978270;28;20442;-54
2023/06/18 00:42:34;;;;;;;17.13;14.18;;;19.60;99.40;;;;;;4990591;28;20050;-53
2023/06/18 00:44:59;;;;;;;18.35;13.35;;;19.50;99.60;;;;;;4999060;28;20432;-52
2023/06/18 00:47:26;;;;;;;15.75;13.48;;;19.60;99.70;;;;;;5000335;28;20049;-50
2023/06/18 00:49:55;;;;;;;17.02;14.52;;;19.60;99.90;;;;;;4995472;28;20037;-55
2023/06/18 00:52:23;;;;;;;15.73;13.55;;;19.50;99.90;;;;;;4983596;28;20049;-55
2023/06/18 00:54:50;;;;;;;16.38;13.35;;;19.50;99.90;;;;;;5000690;28;20520;-53
2023/06/18 00:57:20;;;;;;;14.93;13.07;;;19.50;99.90;;;;;;4999427;28;20062;-53
2023/06/18 00:59:51;;;;;;;16.23;13.55;;;19.50;99.90;;;;;;5000914;28;20026;-56
2023/06/18 01:02:28;;;;;;;18.65;13.82;;;19.40;99.90;;;;;;4999351;28;20025;-52
2023/06/18 01:04:57;;;;;;;16.35;13.95;;;19.40;99.90;;;;;;4997485;28;20042;-50
2023/06/18 01:07:23;;;;;;;17.92;14.15;;;19.40;99.90;;;;;;4999203;28;20489;-49
2023/06/18 01:09:53;;;;;;;17.00;13.30;;;19.60;99.90;;;;;;5001103;28;20053;-52
2023/06/18 01:12:27;;;;;;;17.73;14.40;;;19.30;99.90;;;;;;4999954;28;20709;-54
2023/06/18 01:14:56;;;;;;;17.65;14.30;;;19.20;99.90;;;;;;4998104;28;20477;-51
2023/06/18 01:17:23;;;;;;;18.83;14.70;;;19.20;99.90;;;;;;4999741;28;20042;-51
2023/06/18 01:20:00;;;;;;;19.30;15.48;;;19.10;99.90;;;;;;5001203;28;20040;-54
2023/06/18 01:22:45;;;;;;;17.25;14.52;;;19.20;99.90;;;;;;4985471;28;20038;-53
2023/06/18 01:25:11;;;;;;;17.17;14.75;;;19.20;99.90;;;;;;4999184;28;20384;-52
2023/06/18 01:27:41;;;;;;;19.05;15.38;;;19.10;99.90;;;;;;5003934;28;20057;-53
2023/06/18 01:30:11;;;;;;;16.70;14.75;;;19.10;99.90;;;;;;5002554;28;20073;-52
2023/06/18 01:32:37;;;;;;;19.10;15.07;;;19.10;99.90;;;;;;5001822;28;20037;-52
2023/06/18 01:35:08;;;;;;;17.65;14.40;;;19.10;99.90;;;;;;5003114;28;20648;-52
2023/06/18 01:37:36;;;;;;;18.52;14.90;;;19.10;99.90;;;;;;4986325;28;20045;-52
2023/06/18 01:40:36;;;;;;;18.00;15.18;;;19.00;99.90;;;;;;4986017;28;20046;-50
2023/06/18 01:43:25;;;;;;;18.73;16.23;;;19.00;99.90;;;;;;5002674;28;20057;-52
2023/06/18 01:45:57;;;;;;;17.60;15.23;;;19.00;99.90;;;;;;4979186;28;20104;-53
2023/06/18 01:48:25;;;;;;;20.17;15.75;;;18.90;99.90;;;;;;5001753;28;20038;-53
2023/06/18 01:50:52;;;;;;;23.85;16.40;;;18.90;99.90;;;;;;5000090;28;20042;-55
2023/06/18 01:53:22;;;;;;;19.15;16.27;;;18.80;99.90;;;;;;5002601;28;20256;-55
2023/06/18 01:55:52;;;;;;;18.08;15.75;;;18.80;99.90;;;;;;5001422;28;20038;-50
2023/06/18 01:58:20;;;;;;;17.83;15.73;;;18.80;99.90;;;;;;5004624;28;20058;-51
2023/06/18 02:00:48;;;;;;;19.40;16.65;;;18.70;99.90;;;;;;5002884;28;20034;-50
2023/06/18 02:03:13;;;;;;;19.27;16.38;;;18.70;99.90;;;;;;4999976;28;20076;-53
2023/06/18 02:05:39;;;;;;;20.13;16.33;;;18.60;99.90;;;;;;5002460;28;20046;-53
2023/06/18 02:08:05;;;;;;;18.42;15.73;;;18.50;99.90;;;;;;4987211;28;20104;-51
2023/06/18 02:10:31;;;;;;;20.63;17.40;;;18.50;99.90;;;;;;5003118;28;20038;-55
2023/06/18 02:12:56;;;;;;;20.83;17.92;;;18.50;99.90;;;;;;4998757;28;20231;-51
2023/06/18 02:15:22;;;;;;;21.02;17.67;;;18.50;99.90;;;;;;5002930;28;20144;-53
2023/06/18 02:17:48;;;;;;;20.05;17.77;;;18.50;99.90;;;;;;5002597;28;20034;-54
2023/06/18 02:20:14;;;;;;;20.33;16.75;;;18.50;99.90;;;;;;5002086;28;20034;-49
2023/06/18 02:22:39;;;;;;;19.67;17.50;;;18.40;99.90;;;;;;5001569;28;20465;-53
2023/06/18 02:25:06;;;;;;;21.48;17.40;;;18.40;99.90;;;;;;5001224;28;20030;-54
2023/06/18 02:27:31;;;;;;;23.63;17.48;;;18.40;99.90;;;;;;5002151;28;20080;-51
2023/06/18 02:30:01;;;;;;;20.10;17.60;;;18.30;99.90;;;;;;4999349;28;20068;-54
2023/06/18 02:32:28;;;;;;;20.80;17.83;;;18.30;99.90;;;;;;5000558;28;20145;-53
2023/06/18 02:34:55;;;;;;;22.27;18.35;;;18.30;99.90;;;;;;5002494;28;20124;-51
2023/06/18 02:37:21;;;;;;;21.25;18.50;;;18.30;99.90;;;;;;4999870;28;20042;-52
2023/06/18 02:39:46;;;;;;;21.08;17.67;;;18.30;99.90;;;;;;5000612;28;20037;-53
2023/06/18 02:42:12;;;;;;;28.90;19.25;;;18.20;99.90;;;;;;5000335;28;20140;-51
2023/06/18 02:44:41;;;;;;;21.58;18.25;;;18.20;99.90;;;;;;5000899;28;20501;-51
2023/06/18 02:47:08;;;;;;;22.40;19.67;;;18.10;99.90;;;;;;4999729;28;20103;-51
2023/06/18 02:49:34;;;;;;;22.40;18.42;;;18.10;99.90;;;;;;5000213;28;20040;-53
2023/06/18 02:52:00;;;;;;;20.80;18.55;;;18.10;99.90;;;;;;5001854;28;20030;-55
2023/06/18 02:54:25;;;;;;;26.33;19.60;;;18.00;99.90;;;;;;5000610;28;20464;-54
2023/06/18 02:56:51;;;;;;;26.67;20.27;;;18.00;99.90;;;;;;5000405;28;20042;-52
2023/06/18 02:59:17;;;;;;;21.35;19.02;;;17.90;99.90;;;;;;4999509;28;20624;-53
2023/06/18 03:01:45;;;;;;;26.05;21.73;;;17.90;99.90;;;;;;5000698;28;20033;-53
2023/06/18 03:04:11;;;;;;;25.42;20.70;;;17.80;99.90;;;;;;5002559;28;20034;-50
2023/06/18 03:06:37;;;;;;;24.52;20.60;;;17.80;99.90;;;;;;5001921;28;20084;-50
2023/06/18 03:09:03;;;;;;;23.90;20.67;;;17.70;99.90;;;;;;5000285;28;20050;-51
2023/06/18 03:11:30;;;;;;;24.80;20.30;;;17.70;99.90;;;;;;4998260;28;20041;-52
2023/06/18 03:13:56;;;;;;;24.02;20.17;;;17.70;99.90;;;;;;5002063;28;20505;-52
2023/06/18 03:16:23;;;;;;;25.00;20.65;;;17.70;99.90;;;;;;5002459;28;20053;-55
2023/06/18 03:18:49;;;;;;;23.52;21.02;;;17.70;99.90;;;;;;4998663;28;20047;-56
2023/06/18 03:21:15;;;;;;;25.70;21.92;;;17.70;99.90;;;;;;4983939;28;20038;-54
2023/06/18 03:23:43;;;;;;;25.58;21.33;;;17.70;99.90;;;;;;5001626;28;20489;-53
2023/06/18 03:26:09;;;;;;;25.58;21.15;;;17.70;99.90;;;;;;4998950;28;20088;-53
2023/06/18 03:28:35;;;;;;;27.00;22.05;;;17.70;99.90;;;;;;4997527;28;20117;-54
2023/06/18 03:31:02;;;;;;;24.75;20.95;;;17.70;99.90;;;;;;5000856;28;20045;-53
2023/06/18 03:33:31;;;;;;;24.95;21.65;;;17.70;99.90;;;;;;5002104;28;20042;-54
2023/06/18 03:35:59;;;;;;;25.63;21.85;;;17.70;99.90;;;;;;4999686;28;20117;-51
2023/06/18 03:38:27;;;;;;;25.98;21.15;;;17.60;99.90;;;;;;4997435;28;20057;-52
2023/06/18 03:40:52;;;;;;;23.42;20.45;;;17.70;99.90;;;;;;4999318;28;20042;-49
2023/06/18 03:43:18;;;;;;;26.83;21.63;;;17.70;99.90;;;;;;5000339;28;20059;-55
2023/06/18 03:45:44;;;;;;;28.55;22.85;;;17.70;99.90;;;;;;5000558;28;20045;-49
2023/06/18 03:48:10;;;;;;;26.55;21.83;;;17.70;99.90;;;;;;4999679;28;20413;-51
2023/06/18 03:50:35;;;;;;;25.67;22.02;;;17.60;99.90;;;;;;5000896;28;20030;-50
2023/06/18 03:53:02;;;;;;;25.15;21.02;;;17.70;99.90;;;;;;4999503;28;20132;-52
2023/06/18 03:55:28;;;;;;;25.65;22.85;;;17.80;99.90;;;;;;4999650;28;20050;-52
2023/06/18 03:57:54;;;;;;;25.48;21.25;;;17.70;99.90;;;;;;4981701;28;20042;-53
2023/06/18 04:00:20;;;;;;;24.42;21.67;;;17.70;99.90;;;;;;4999016;28;20061;-52
2023/06/18 04:02:46;;;;;;;27.17;22.85;;;17.70;99.90;;;;;;5001151;28;20029;-52
2023/06/18 04:05:12;;;;;;;26.60;22.20;;;17.80;99.90;;;;;;5001268;28;20037;-51
2023/06/18 04:07:38;;;;;;;28.48;21.42;;;17.80;99.90;;;;;;5001330;28;20464;-52
2023/06/18 04:10:04;;;;;;;27.50;22.17;;;17.90;99.90;;;;;;4998771;28;20397;-53
2023/06/18 04:12:29;;;;;;;27.25;22.50;;;17.90;99.90;;;;;;5001378;28;20053;-49
2023/06/18 04:14:55;;;;;;;28.08;22.05;;;17.90;99.90;;;;;;4999428;28;20042;-53
2023/06/18 04:17:21;;;;;;;27.00;21.75;;;18.00;99.90;;;;;;4998697;28;20121;-54
2023/06/18 04:19:46;;;;;;;24.63;21.70;;;18.00;99.90;;;;;;4998851;28;20034;-50
2023/06/18 04:22:12;;;;;;;29.55;22.80;;;18.00;99.90;;;;;;4996933;28;20046;-52
2023/06/18 04:24:38;;;;;;;27.83;21.38;;;18.10;99.90;;;;;;4997752;28;20117;-52
2023/06/18 04:27:03;;;;;;;25.52;22.67;;;18.10;99.90;;;;;;4999679;28;20034;-52
2023/06/18 04:29:30;;;;;;;26.40;22.33;;;18.00;99.90;;;;;;4997715;28;20042;-53
2023/06/18 04:31:56;;;;;;;26.38;21.95;;;18.00;99.90;;;;;;5000107;28;20374;-54
2023/06/18 04:34:22;;;;;;;25.92;20.63;;;18.00;99.90;;;;;;4999701;28;20821;-53
2023/06/18 04:36:47;;;;;;;31.88;23.67;;;18.00;99.90;;;;;;4999157;28;20042;-55
2023/06/18 04:39:13;;;;;;;27.55;22.67;;;18.00;99.90;;;;;;4998220;28;20048;-54
2023/06/18 04:41:39;;;;;;;26.05;22.20;;;18.10;99.90;;;;;;4998086;28;20034;-52
2023/06/18 04:44:05;;;;;;;27.65;22.73;;;18.00;99.90;;;;;;4984219;28;20469;-52
2023/06/18 04:46:33;;;;;;;24.65;20.63;;;18.00;99.90;;;;;;4983480;28;20076;-52
2023/06/18 04:48:59;;;;;;;26.17;21.35;;;18.00;99.90;;;;;;4981929;28;20046;-56
2023/06/18 04:51:25;;;;;;;24.98;21.55;;;18.10;99.90;;;;;;4998168;28;20044;-55
2023/06/18 04:53:52;;;;;;;25.73;21.92;;;18.10;99.90;;;;;;4997955;28;20048;-53
2023/06/18 04:56:18;;;;;;;27.02;22.27;;;18.20;99.90;;;;;;5000917;28;20054;-52
2023/06/18 04:58:44;;;;;;;27.52;22.10;;;18.20;99.90;;;;;;4997424;28;20401;-54
2023/06/18 05:01:09;;;;;;;27.40;21.38;;;18.30;99.90;;;;;;5000133;28;20104;-53
2023/06/18 05:03:36;;;;;;;25.38;21.33;;;18.30;99.90;;;;;;4998741;28;20499;-51
2023/06/18 05:06:02;;;;;;;26.48;21.88;;;18.40;99.90;;;;;;4981670;28;20076;-51
2023/06/18 05:08:28;;;;;;;26.40;21.77;;;18.40;99.90;;;;;;5000310;28;20038;-54
2023/06/18 05:10:54;;;;;;;27.95;22.45;;;18.50;99.90;;;;;;4996765;28;20088;-51
2023/06/18 05:13:20;;;;;;;29.45;22.95;;;18.60;99.90;;;;;;5000173;28;20057;-50
2023/06/18 05:15:45;;;;;;;26.23;21.52;;;18.60;99.90;;;;;;4997138;28;20065;-51
2023/06/18 05:18:11;;;;;;;25.73;21.77;;;18.70;99.90;;;;;;4998240;28;20073;-52
2023/06/18 05:20:37;;;;;;;30.92;22.58;;;18.70;99.90;;;;;;4997041;28;20030;-52
2023/06/18 05:23:02;;;;;;;25.42;21.38;;;18.80;99.90;;;;;;4999114;28;20582;-54
2023/06/18 05:25:28;;;;;;;29.63;21.45;;;18.80;99.90;;;;;;5000523;28;20030;-53
2023/06/18 05:27:54;;;;;;;28.33;22.88;;;18.80;99.90;;;;;;4999001;28;20401;-53
2023/06/18 05:30:19;;;;;;;26.48;22.65;;;18.80;99.90;;;;;;4997291;28;20169;-54
2023/06/18 05:32:45;;;;;;;26.20;21.05;;;18.80;99.90;;;;;;4982430;28;20046;-51
2023/06/18 05:35:11;;;;;;;28.75;21.30;;;18.80;99.90;;;;;;4980853;28;20046;-52
2023/06/18 05:37:36;;;;;;;28.80;23.13;;;18.80;99.90;;;;;;5000106;28;20042;-51
2023/06/18 05:40:02;;;;;;;25.95;21.52;;;18.90;99.90;;;;;;4999680;28;20480;-55
2023/06/18 05:42:28;;;;;;;26.40;22.33;;;18.90;99.90;;;;;;4981585;28;20050;-52
2023/06/18 05:44:54;;;;;;;25.13;20.88;;;19.00;99.90;;;;;;4980922;28;20041;-50
2023/06/18 05:47:20;;;;;;;24.55;20.75;;;19.10;99.90;;;;;;4999218;28;20037;-52
2023/06/18 05:49:46;;;;;;;28.75;22.23;;;19.10;99.90;;;;;;4994915;28;20791;-51
2023/06/18 05:52:11;;;;;;;24.88;20.45;;;19.10;99.90;;;;;;4998196;28;20034;-54
2023/06/18 05:54:38;;;;;;;25.90;21.50;;;19.00;99.90;;;;;;4997309;28;20046;-52
2023/06/18 05:57:05;;;;;;;27.83;21.50;;;19.10;99.90;;;;;;4997462;28;20405;-56
2023/06/18 05:59:31;;;;;;;25.85;21.45;;;19.10;99.90;;;;;;4997723;28;20710;-52
2023/06/18 06:01:57;;;;;;;27.17;21.40;;;19.20;99.90;;;;;;4996252;28;20041;-52
2023/06/18 06:04:23;;;;;;;28.52;22.70;;;19.30;99.90;;;;;;5000297;28;20041;-52
2023/06/18 06:06:49;;;;;;;25.92;20.50;;;19.40;99.90;;;;;;5003463;28;20045;-53
2023/06/18 06:09:15;;;;;;;27.25;21.63;;;19.50;99.90;;;;;;5001517;28;20042;-54
2023/06/18 06:11:40;;;;;;;27.67;22.45;;;19.60;99.90;;;;;;5001790;28;20042;-54
2023/06/18 06:14:06;;;;;;;25.40;19.88;;;19.70;99.90;;;;;;5002160;28;20496;-54
2023/06/18 06:16:32;;;;;;;26.30;21.00;;;19.80;99.90;;;;;;5000733;28;20042;-52
2023/06/18 06:18:57;;;;;;;24.67;19.90;;;19.90;99.90;;;;;;5002094;28;20049;-53
2023/06/18 06:21:23;;;;;;;24.60;19.75;;;20.00;99.90;;;;;;5001368;28;20049;-55
2023/06/18 06:23:50;;;;;;;26.70;19.70;;;20.10;99.90;;;;;;5000822;28;20077;-51
2023/06/18 06:26:15;;;;;;;24.80;19.92;;;20.20;99.90;;;;;;5001686;28;20107;-53
2023/06/18 06:28:41;;;;;;;25.52;19.20;;;20.20;99.90;;;;;;5002544;28;20124;-52
2023/06/18 06:31:07;;;;;;;26.85;20.02;;;20.20;99.90;;;;;;4985404;28;20543;-53
2023/06/18 06:33:32;;;;;;;23.88;18.67;;;20.30;99.90;;;;;;4999163;28;20420;-50
2023/06/18 06:35:58;;;;;;;24.88;18.85;;;20.30;99.90;;;;;;5000309;28;20038;-50
2023/06/18 06:38:24;;;;;;;24.02;18.90;;;20.40;99.90;;;;;;5001852;28;20046;-51
2023/06/18 06:40:50;;;;;;;24.92;19.08;;;20.40;99.90;;;;;;4998275;28;20049;-52
2023/06/18 06:43:15;;;;;;;24.33;19.80;;;20.40;99.90;;;;;;5001370;28;20056;-52
2023/06/18 06:45:41;;;;;;;27.08;20.58;;;20.30;99.90;;;;;;5001869;28;20188;-53
2023/06/18 06:48:07;;;;;;;25.55;20.13;;;20.40;99.90;;;;;;5000247;28;20038;-52
2023/06/18 06:50:32;;;;;;;26.58;20.63;;;20.40;99.90;;;;;;4984151;28;20105;-53
2023/06/18 06:52:58;;;;;;;25.40;19.30;;;20.50;99.90;;;;;;5003366;28;20042;-53
2023/06/18 06:55:24;;;;;;;26.23;19.98;;;20.60;99.90;;;;;;5001242;28;20045;-52
2023/06/18 06:57:49;;;;;;;26.20;20.05;;;20.60;99.90;;;;;;4984108;28;20725;-52
2023/06/18 07:00:16;;;;;;;25.98;20.40;;;20.70;99.90;;;;;;4997853;28;20030;-52
2023/06/18 07:02:41;;;;;;;25.17;19.20;;;20.80;99.90;;;;;;5000472;28;20037;-53
2023/06/18 07:05:09;;;;;;;25.65;19.85;;;20.80;99.90;;;;;;5000132;28;20034;-55
2023/06/18 07:07:35;;;;;;;24.63;18.15;;;20.80;99.90;;;;;;4998406;28;20069;-53
2023/06/18 07:10:02;;;;;;;24.88;18.00;;;20.90;99.90;;;;;;5001818;28;20045;-55
2023/06/18 07:12:27;;;;;;;23.55;18.48;;;20.90;99.90;;;;;;4999246;28;20046;-53
2023/06/18 07:14:53;;;;;;;22.48;17.63;;;21.10;99.90;;;;;;4994487;28;20038;-50
2023/06/18 07:17:19;;;;;;;24.58;18.65;;;21.10;99.90;;;;;;4996888;28;20103;-54
2023/06/18 07:19:44;;;;;;;25.30;18.38;;;21.20;99.90;;;;;;4996105;28;20030;-53
2023/06/18 07:22:10;;;;;;;24.73;17.83;;;21.30;99.90;;;;;;4997173;28;20552;-56
2023/06/18 07:24:36;;;;;;;23.15;18.63;;;21.30;99.90;;;;;;4999585;28;20519;-54
2023/06/18 07:27:02;;;;;;;23.98;17.60;;;21.30;99.90;;;;;;4997719;28;20042;-53
2023/06/18 07:29:27;;;;;;;21.75;17.92;;;21.50;99.90;;;;;;4993181;28;20041;-56
2023/06/18 07:31:53;;;;;;;21.88;18.00;;;21.60;99.90;;;;;;4988892;28;20094;-52
2023/06/18 07:34:18;;;;;;;24.00;18.00;;;21.60;99.90;;;;;;4997707;28;20046;-54
2023/06/18 07:36:44;;;;;;;20.67;16.42;;;21.70;99.90;;;;;;4996757;28;20034;-55
2023/06/18 07:39:10;;;;;;;23.77;17.75;;;21.70;99.90;;;;;;4995545;28;20389;-54
2023/06/18 07:41:36;;;;;;;25.05;18.02;;;21.80;99.90;;;;;;4998326;28;20031;-52
2023/06/18 07:44:01;;;;;;;26.67;18.73;;;21.80;99.90;;;;;;4998119;28;20049;-52
2023/06/18 07:46:27;;;;;;;23.33;17.70;;;21.90;99.90;;;;;;4997238;28;20056;-50
2023/06/18 07:48:53;;;;;;;21.45;17.38;;;21.90;99.90;;;;;;4980512;28;20625;-50
2023/06/18 07:51:19;;;;;;;21.20;16.02;;;21.90;99.90;;;;;;5000040;28;20046;-55
2023/06/18 07:53:45;;;;;;;20.05;16.45;;;22.00;99.90;;;;;;4995492;28;20026;-54
2023/06/18 07:56:11;;;;;;;23.02;16.38;;;22.10;99.90;;;;;;4999770;28;20077;-56
2023/06/18 07:58:37;;;;;;;21.23;16.17;;;22.20;99.90;;;;;;4981204;28;20042;-55
2023/06/18 08:01:03;;;;;;;21.45;16.73;;;22.40;99.90;;;;;;4997933;28;20121;-51
2023/06/18 08:03:28;;;;;;;21.25;15.93;;;22.50;99.90;;;;;;4997841;28;20034;-52
2023/06/18 08:05:54;;;;;;;22.10;16.08;;;22.70;99.90;;;;;;4995255;28;20030;-54
2023/06/18 08:08:20;;;;;;;19.35;14.05;;;22.80;99.90;;;;;;5001552;28;20042;-53
2023/06/18 08:10:46;;;;;;;24.92;14.10;;;22.90;99.90;;;;;;4996032;28;20054;-55
2023/06/18 08:13:12;;;;;;;21.35;15.68;;;22.90;99.90;;;;;;5000288;28;20100;-54
2023/06/18 08:15:38;;;;;;;17.67;13.35;;;23.00;99.90;;;;;;4999235;28;20034;-55
2023/06/18 08:18:03;;;;;;;17.08;13.15;;;23.00;99.90;;;;;;5000031;28;20042;-51
2023/06/18 08:20:29;;;;;;;18.30;13.95;;;23.10;99.90;;;;;;4997036;28;20034;-52
2023/06/18 08:22:55;;;;;;;17.02;13.70;;;23.20;99.90;;;;;;4998381;28;20034;-54
2023/06/18 08:25:20;;;;;;;20.08;14.20;;;23.30;99.90;;;;;;4993096;28;20525;-55
2023/06/18 08:27:46;;;;;;;17.55;13.93;;;23.40;99.90;;;;;;5000660;28;20103;-53
2023/06/18 08:30:12;;;;;;;19.13;14.43;;;23.50;99.90;;;;;;4997673;28;20037;-52
2023/06/18 08:32:38;;;;;;;21.33;14.57;;;23.60;99.90;;;;;;4998301;28;20088;-53
2023/06/18 08:35:05;;;;;;;17.15;13.70;;;23.80;99.90;;;;;;4977700;28;20620;-54
2023/06/18 08:37:31;;;;;;;19.15;13.98;;;23.80;99.90;;;;;;4997310;28;20042;-54
2023/06/18 08:39:57;;;;;;;19.80;14.77;;;23.90;99.90;;;;;;4997319;28;20058;-55
2023/06/18 08:42:23;;;;;;;20.10;14.68;;;24.00;99.90;;;;;;4992349;28;20698;-51
2023/06/18 08:44:50;;;;;;;18.38;13.55;;;24.00;99.90;;;;;;4960881;28;20057;-51
2023/06/18 08:47:16;;;;;;;21.48;14.38;;;24.10;99.90;;;;;;4980967;28;20129;-51
2023/06/18 08:49:44;;;;;;;17.00;13.35;;;24.20;99.90;;;;;;4992186;28;20506;-55
2023/06/18 08:52:10;;;;;;;19.02;13.57;;;24.30;99.90;;;;;;4981717;28;20180;-53
2023/06/18 08:54:38;;;;;;;18.45;12.93;;;24.40;99.90;;;;;;4993920;28;20053;-53
2023/06/18 08:57:34;;;;;;;16.90;12.63;;;24.50;99.90;;;;;;4994672;28;20497;-50
2023/06/18 09:00:00;;;;;;;15.93;12.35;;;24.70;99.90;;;;;;4994670;28;20057;-54
2023/06/18 09:02:30;;;;;;;17.40;12.57;;;24.90;99.90;;;;;;4993005;28;20058;-55
2023/06/18 09:04:56;;;;;;;16.27;11.82;;;25.00;99.90;;;;;;4997146;28;20058;-54
2023/06/18 09:07:26;;;;;;;16.23;11.80;;;25.20;99.80;;;;;;4992585;28;20468;-54
2023/06/18 09:09:51;;;;;;;15.98;11.68;;;25.30;99.70;;;;;;4945796;28;20120;-55
2023/06/18 09:12:17;;;;;;;14.48;10.60;;;25.50;99.20;;;;;;5000689;28;20050;-53
2023/06/18 09:14:44;;;;;;;14.98;10.23;;;25.80;98.50;;;;;;5002492;28;20034;-56
2023/06/18 09:17:10;;;;;;;13.93;10.40;;;25.90;97.60;;;;;;4995348;28;20078;-56
2023/06/18 09:19:37;;;;;;;13.40;10.35;;;26.00;97.50;;;;;;5000171;28;20077;-55
2023/06/18 09:22:16;;;;;;;13.60;10.25;;;26.10;97.10;;;;;;4982543;28;20125;-55
2023/06/18 09:24:43;;;;;;;13.95;10.15;;;26.20;96.80;;;;;;4994322;28;20050;-55
2023/06/18 09:27:09;;;;;;;13.90;10.25;;;26.30;96.90;;;;;;4988989;28;20448;-54
2023/06/18 09:29:37;;;;;;;10.98;9.30;;;26.50;96.90;;;;;;5001992;28;20500;-55
2023/06/18 09:32:08;;;;;;;12.30;9.40;;;26.70;96.50;;;;;;4998950;28;20034;-54
2023/06/18 09:34:34;;;;;;;12.07;8.82;;;26.80;95.90;;;;;;5002948;28;20168;-51
2023/06/18 09:37:00;;;;;;;15.07;9.85;;;26.90;95.80;;;;;;4984476;28;20526;-54
2023/06/18 09:39:26;;;;;;;13.32;9.98;;;26.90;95.40;;;;;;5007415;28;20121;-56
2023/06/18 09:41:53;;;;;;;13.55;8.63;;;26.90;95.50;;;;;;5009236;28;20069;-54
2023/06/18 09:44:22;;;;;;;12.35;10.40;;;26.80;95.30;;;;;;5005531;28;20046;-54
2023/06/18 09:46:50;;;;;;;13.35;9.75;;;26.70;95.00;;;;;;5006736;28;20049;-55
2023/06/18 09:49:18;;;;;;;10.75;8.68;;;26.60;95.00;;;;;;5006749;28;20038;-53
2023/06/18 09:51:45;;;;;;;12.02;8.52;;;26.50;94.70;;;;;;5001794;28;20045;-51
2023/06/18 09:54:11;;;;;;;14.55;8.77;;;26.40;94.00;;;;;;4997698;28;20081;-55
2023/06/18 09:56:58;;;;;;;11.35;8.07;;;26.30;93.80;;;;;;4985103;28;20069;-53
2023/06/18 09:59:24;;;;;;;10.55;7.20;;;26.20;93.80;;;;;;4980229;28;20038;-51
2023/06/18 10:01:50;;;;;;;11.35;8.45;;;26.10;93.80;;;;;;4978944;28;20042;-56
2023/06/18 10:04:17;;;;;;;12.30;8.02;;;26.10;94.10;;;;;;5001029;28;20086;-53
2023/06/18 10:06:51;;;;;;;12.60;8.57;;;26.10;94.00;;;;;;5001937;28;20038;-54
2023/06/18 10:09:19;;;;;;;13.65;8.57;;;26.10;94.10;;;;;;4998713;28;20042;-51
2023/06/18 10:11:48;;;;;;;12.30;8.90;;;26.10;94.00;;;;;;4998383;28;20092;-53
2023/06/18 10:14:16;;;;;;;15.50;9.07;;;26.20;94.30;;;;;;4997054;28;20041;-53
2023/06/18 10:16:48;;;;;;;12.18;9.20;;;26.30;94.50;;;;;;4996697;28;20068;-55
2023/06/18 10:19:23;;;;;;;14.45;9.52;;;26.30;94.70;;;;;;4998178;28;20049;-55
2023/06/18 10:22:00;;;;;;;14.32;8.90;;;26.50;94.80;;;;;;4995776;28;20042;-54
2023/06/18 10:24:46;;;;;;;10.60;8.80;;;26.60;95.40;;;;;;4979267;28;20042;-52
2023/06/18 10:27:12;;;;;;;11.77;8.07;;;26.70;95.00;;;;;;4980493;28;20417;-51
2023/06/18 10:29:38;;;;;;;11.85;8.25;;;26.90;94.50;;;;;;4995263;28;20049;-55
2023/06/18 10:32:05;;;;;;;11.70;8.30;;;27.10;94.60;;;;;;4995537;28;20516;-53
2023/06/18 10:34:34;;;;;;;9.95;7.40;;;27.30;93.70;;;;;;4983868;28;20054;-53
2023/06/18 10:37:01;;;;;;;9.98;7.68;;;27.50;93.30;;;;;;5000237;28;20416;-55
2023/06/18 10:39:28;;;;;;;11.20;7.70;;;27.60;92.80;;;;;;4996945;28;20053;-55
2023/06/18 10:41:54;;;;;;;9.88;7.45;;;27.70;92.20;;;;;;4995525;28;20058;-53
2023/06/18 10:44:47;;;;;;;13.73;7.55;;;27.80;92.30;;;;;;4999328;28;20085;-53
2023/06/18 10:47:21;;;;;;;9.00;7.23;;;27.90;92.30;;;;;;4998698;28;20037;-50
2023/06/18 10:50:02;;;;;;;11.80;7.25;;;28.00;91.50;;;;;;5000815;28;20039;-54
2023/06/18 10:52:30;;;;;;;9.65;7.80;;;28.10;91.10;;;;;;4997067;28;20421;-53
2023/06/18 10:55:08;;;;;;;9.48;7.03;;;28.10;90.70;;;;;;4997572;28;20050;-53
2023/06/18 10:57:41;;;;;;;12.57;7.18;;;28.20;91.30;;;;;;4996902;28;20034;-54
2023/06/18 11:00:42;;;;;;;11.50;7.10;;;28.30;90.90;;;;;;4997431;28;20038;-51
2023/06/18 11:03:17;;;;;;;8.52;6.85;;;28.40;90.10;;;;;;4918612;29;20538;-50
2023/06/18 11:05:53;;;;;;;9.55;7.10;;;28.50;90.20;;;;;;4973175;28;20569;-52
2023/06/18 11:08:29;;;;;;;11.30;6.97;;;28.60;89.50;;;;;;4981083;28;20433;-53
2023/06/18 11:11:15;;;;;;;8.30;6.65;;;28.70;89.80;;;;;;5002309;28;20088;-53
2023/06/18 11:13:53;;;;;;;8.20;6.07;;;28.70;89.70;;;;;;4997655;28;20048;-51
2023/06/18 11:16:19;;;;;;;8.15;6.50;;;28.80;89.10;;;;;;4996487;28;20378;-50
2023/06/18 11:18:44;;;;;;;8.55;6.35;;;28.80;88.20;;;;;;5000433;28;20485;-54
2023/06/18 11:21:18;;;;;;;9.00;5.65;;;28.80;87.20;;;;;;4998482;28;20038;-53
2023/06/18 11:23:45;;;;;;;8.48;5.55;;;28.90;84.70;;;;;;4978603;28;20441;-51
2023/06/18 11:26:18;;;;;;;10.55;5.47;;;28.90;84.30;;;;;;4960020;28;20049;-53
2023/06/18 13:37:27;;;;;;;9.57;5.47;;;29.10;74.50;;;;;;2850356;23;20055;-51
2023/06/18 13:39:53;;;;;;;11.40;6.10;;;29.00;74.30;;;;;;4986003;28;20042;-48
2023/06/18 13:42:19;;;;;;;10.30;5.70;;;29.00;74.40;;;;;;4984125;28;20038;-51
2023/06/18 13:44:45;;;;;;;8.60;6.25;;;29.00;76.50;;;;;;4988533;28;20117;-46
2023/06/18 13:47:11;;;;;;;9.98;6.57;;;29.00;75.20;;;;;;4989270;28;20129;-48
2023/06/18 13:49:37;;;;;;;9.70;6.00;;;29.00;75.00;;;;;;4988402;28;20193;-48
2023/06/18 13:52:04;;;;;;;7.57;5.50;;;29.00;75.20;;;;;;4987745;28;20054;-50
2023/06/18 13:54:30;;;;;;;12.13;6.20;;;29.00;75.50;;;;;;4984610;28;20061;-50
2023/06/18 13:56:56;;;;;;;8.73;5.93;;;29.00;75.60;;;;;;4990233;28;20145;-53
2023/06/18 13:59:23;;;;;;;11.35;5.40;;;29.00;76.70;;;;;;4989396;28;20636;-47
2023/06/18 14:01:50;;;;;;;9.13;5.63;;;28.90;76.40;;;;;;4991591;28;20113;-48
2023/06/18 14:04:18;;;;;;;8.02;5.32;;;28.90;77.30;;;;;;4990451;28;20091;-48
2023/06/18 14:06:44;;;;;;;8.10;5.32;;;28.80;77.30;;;;;;4987676;28;20129;-48
2023/06/18 14:09:10;;;;;;;9.23;5.68;;;28.80;76.10;;;;;;4987626;28;20050;-50
2023/06/18 14:11:37;;;;;;;7.43;5.70;;;28.80;76.60;;;;;;4988657;28;20042;-48
2023/06/18 14:14:02;;;;;;;8.00;5.20;;;28.70;76.50;;;;;;4958102;28;20166;-47
2023/06/18 14:16:30;;;;;;;8.45;5.68;;;28.70;77.00;;;;;;4988988;28;20386;-47
2023/06/18 14:18:56;;;;;;;7.78;5.22;;;28.70;76.10;;;;;;4987654;28;20051;-49
2023/06/18 14:21:22;;;;;;;9.82;6.03;;;28.70;76.40;;;;;;4988469;28;20039;-50
2023/06/18 14:23:50;;;;;;;8.88;5.47;;;28.70;76.50;;;;;;4993508;28;20669;-50
2023/06/18 14:26:16;;;;;;;9.75;5.63;;;28.70;76.90;;;;;;4990586;28;20473;-48
2023/06/18 14:28:41;;;;;;;7.57;5.60;;;28.70;76.30;;;;;;4990501;28;20069;-48
2023/06/18 14:31:07;;;;;;;10.55;5.68;;;28.60;76.60;;;;;;4988986;28;20418;-49
2023/06/18 14:33:33;;;;;;;9.88;6.05;;;28.60;77.30;;;;;;4969072;28;20052;-49
2023/06/18 14:35:58;;;;;;;10.38;5.97;;;28.60;77.80;;;;;;4991784;28;20038;-53
2023/06/18 14:38:24;;;;;;;8.20;5.53;;;28.60;77.70;;;;;;4992630;28;20054;-52
2023/06/18 14:40:50;;;;;;;10.90;5.88;;;28.50;77.50;;;;;;4993415;28;20066;-51